createdAt,value
2023-01-04T00:00:55.577Z,98947.81
2023-01-04T00:03:25.611Z,98950.69
2023-01-04T00:05:56.431Z,98955.28
2023-01-04T00:08:26.542Z,98956.31
2023-01-04T00:11:01.894Z,98950.06
2023-01-04T00:13:33.538Z,98947.22
2023-01-04T00:16:08.617Z,98942.16
2023-01-04T00:18:38.592Z,98938.84
2023-01-04T00:21:10.362Z,98938.41
2023-01-04T00:23:40.967Z,98940.06
2023-01-04T00:26:12.713Z,98941.81
2023-01-04T00:28:51.752Z,98938.81
2023-01-04T00:31:25.780Z,98933.75
2023-01-04T00:33:57.173Z,98930.25
2023-01-04T00:36:27.795Z,98925.81
2023-01-04T00:39:09.171Z,98931.47
2023-01-04T00:44:32.751Z,98935.63
2023-01-04T00:47:04.469Z,98939.44
2023-01-04T00:49:34.917Z,98940.72
2023-01-04T00:52:05.091Z,98938.69
2023-01-04T00:54:36.496Z,98947.38
2023-01-04T00:57:07.578Z,98943.16
2023-01-04T00:59:39.684Z,98942.69
2023-01-04T01:02:09.587Z,98948.41
2023-01-04T01:04:39.718Z,98942.44
2023-01-04T01:07:09.916Z,98945.59
2023-01-04T01:09:40.305Z,98948.38
2023-01-04T01:12:10.904Z,98951.59
2023-01-04T01:14:42.360Z,98950.69
2023-01-04T01:17:12.953Z,98952.03
2023-01-04T01:19:43.378Z,98957.53
2023-01-04T01:22:13.594Z,98953.19
2023-01-04T01:24:43.704Z,98953.94
2023-01-04T01:27:13.754Z,98951.97
2023-01-04T01:29:45.494Z,98948.84
2023-01-04T01:32:15.513Z,98948.06
2023-01-04T01:34:45.677Z,98946.75
2023-01-04T01:37:16.664Z,98937.47
2023-01-04T01:39:47.032Z,98940.41
2023-01-04T01:42:23.593Z,98937.47
2023-01-04T01:45:01.724Z,98936.59
2023-01-04T01:47:40.229Z,98935.88
2023-01-04T01:50:22.900Z,98938.66
2023-01-04T01:52:53.415Z,98936.59
2023-01-04T01:55:23.741Z,98936.78
2023-01-04T01:57:55.684Z,98933.63
2023-01-04T02:00:27.751Z,98929.75
2023-01-04T02:03:04.419Z,98928.69
2023-01-04T02:05:35.935Z,98926.59
2023-01-04T02:08:07.944Z,98918.69
2023-01-04T02:10:38.148Z,98925.81
2023-01-04T02:13:10.443Z,98912.84
2023-01-04T02:15:55.057Z,98916.88
2023-01-04T02:18:28.363Z,98923.56
2023-01-04T02:21:02.631Z,98921.81
2023-01-04T02:24:05.467Z,98920.06
2023-01-04T02:27:12.218Z,98915.13
2023-01-04T02:30:18.171Z,98912.28
2023-01-04T02:33:07.488Z,98914.59
2023-01-04T02:35:45.671Z,98913.91
2023-01-04T02:38:21.399Z,98910.59
2023-01-04T02:40:55.657Z,98920.44
2023-01-04T02:44:04.377Z,98920.50
2023-01-04T02:46:37.180Z,98922.66
2023-01-04T02:49:26.555Z,98923.31
2023-01-04T02:51:56.747Z,98919.53
2023-01-04T02:54:33.009Z,98924.34
2023-01-04T02:57:10.191Z,98918.84
2023-01-04T02:59:51.664Z,98916.94
2023-01-04T03:02:52.456Z,98919.47
2023-01-04T03:05:53.037Z,98919.53
2023-01-04T03:08:30.491Z,98924.41
2023-01-04T03:11:05.486Z,98921.75
2023-01-04T03:13:38.758Z,98927.72
2023-01-04T03:16:11.837Z,98922.50
2023-01-04T03:18:46.009Z,98924.69
2023-01-04T03:21:18.502Z,98916.94
2023-01-04T03:24:06.324Z,98924.41
2023-01-04T03:26:56.005Z,98919.38
2023-01-04T03:29:54.818Z,98918.44
2023-01-04T03:32:47.030Z,98916.50
2023-01-04T03:35:28.327Z,98920.53
2023-01-04T03:38:18.025Z,98920.78
2023-01-04T03:41:09.774Z,98915.31
2023-01-04T03:44:02.207Z,98912.44
2023-01-04T03:46:51.523Z,98909.66
2023-01-04T03:49:29.221Z,98906.97
2023-01-04T03:52:02.270Z,98906.44
2023-01-04T03:54:37.107Z,98902.41
2023-01-04T03:57:08.318Z,98903.03
2023-01-04T03:59:41.195Z,98907.22
2023-01-04T04:02:14.682Z,98914.50
2023-01-04T04:05:02.141Z,98916.94
2023-01-04T04:07:49.207Z,98917.91
2023-01-04T04:10:21.503Z,98916.00
2023-01-04T04:12:52.518Z,98919.13
2023-01-04T04:15:22.658Z,98919.47
2023-01-04T04:17:52.665Z,98911.28
2023-01-04T04:20:22.022Z,98912.34
2023-01-04T04:22:52.420Z,98905.81
2023-01-04T04:25:24.538Z,98901.03
2023-01-04T04:27:54.693Z,98895.16
2023-01-04T04:30:25.194Z,98895.16
2023-01-04T04:32:55.681Z,98896.34
2023-01-04T04:35:25.491Z,98899.91
2023-01-04T04:37:55.839Z,98907.56
2023-01-04T04:40:56.055Z,98910.19
2023-01-04T04:43:25.930Z,98916.78
2023-01-04T04:45:56.249Z,98914.88
2023-01-04T04:48:26.787Z,98909.84
2023-01-04T04:50:56.314Z,98903.56
2023-01-04T04:53:26.181Z,98904.44
2023-01-04T04:55:58.539Z,98908.06
2023-01-04T04:58:28.314Z,98909.28
2023-01-04T05:00:58.696Z,98910.53
2023-01-04T05:03:29.120Z,98905.91
2023-01-04T05:06:01.013Z,98914.00
2023-01-04T05:08:32.366Z,98907.06
2023-01-04T05:11:07.313Z,98905.72
2023-01-04T05:13:37.135Z,98900.69
2023-01-04T05:16:09.104Z,98900.53
2023-01-04T05:18:39.920Z,98907.72
2023-01-04T05:21:10.261Z,98900.16
2023-01-04T05:23:40.173Z,98890.09
2023-01-04T05:26:12.243Z,98897.13
2023-01-04T05:28:44.929Z,98893.50
2023-01-04T05:31:17.371Z,98898.06
2023-01-04T05:33:47.582Z,98892.00
2023-01-04T05:36:18.375Z,98890.88
2023-01-04T05:38:48.411Z,98891.31
2023-01-04T05:41:36.919Z,98898.00
2023-01-04T05:44:07.541Z,98889.84
2023-01-04T05:46:37.034Z,98896.88
2023-01-04T05:49:07.473Z,98903.63
2023-01-04T05:51:37.861Z,98914.59
2023-01-04T05:54:07.819Z,98908.59
2023-01-04T05:56:39.147Z,98907.81
2023-01-04T05:59:09.018Z,98901.63
2023-01-04T06:01:39.630Z,98904.25
2023-01-04T06:04:10.106Z,98897.50
2023-01-04T06:06:42.718Z,98907.97
2023-01-04T06:09:14.099Z,98913.72
2023-01-04T06:11:45.837Z,98918.34
2023-01-04T06:14:15.945Z,98908.34
2023-01-04T06:16:45.910Z,98908.25
2023-01-04T06:19:16.204Z,98910.88
2023-01-04T06:21:46.283Z,98908.34
2023-01-04T06:24:16.125Z,98906.00
2023-01-04T06:26:48.978Z,98911.47
2023-01-04T06:29:19.095Z,98911.38
2023-01-04T06:31:49.283Z,98914.50
2023-01-04T06:34:21.058Z,98911.72
2023-01-04T06:36:54.457Z,98909.88
2023-01-04T06:39:24.806Z,98909.81
2023-01-04T06:42:05.394Z,98902.59
2023-01-04T06:44:36.884Z,98912.63
2023-01-04T06:47:06.942Z,98913.13
2023-01-04T06:49:36.976Z,98910.19
2023-01-04T06:52:07.542Z,98899.13
2023-01-04T06:54:38.433Z,98907.28
2023-01-04T06:57:10.037Z,98905.28
2023-01-04T06:59:40.440Z,98900.28
2023-01-04T07:02:11.532Z,98903.13
2023-01-04T07:04:42.443Z,98915.03
2023-01-04T07:07:12.645Z,98914.22
2023-01-04T07:09:46.414Z,98921.63
2023-01-04T07:12:17.996Z,98921.69
2023-01-04T07:14:48.396Z,98921.72
2023-01-04T07:17:18.579Z,98915.38
2023-01-04T07:19:48.579Z,98919.19
2023-01-04T07:22:18.730Z,98931.06
2023-01-04T07:24:48.569Z,98921.00
2023-01-04T07:27:20.909Z,98914.94
2023-01-04T07:29:50.933Z,98919.81
2023-01-04T07:32:20.694Z,98918.00
2023-01-04T07:34:50.728Z,98919.38
2023-01-04T07:37:21.771Z,98919.56
2023-01-04T07:39:51.435Z,98915.91
2023-01-04T07:42:23.779Z,98912.59
2023-01-04T07:44:53.982Z,98911.47
2023-01-04T07:47:24.339Z,98917.91
2023-01-04T07:49:54.813Z,98925.19
2023-01-04T07:52:25.136Z,98921.63
2023-01-04T07:54:55.379Z,98921.81
2023-01-04T07:57:27.237Z,98927.50
2023-01-04T07:59:57.260Z,98921.19
2023-01-04T08:02:27.501Z,98923.47
2023-01-04T08:04:58.803Z,98927.72
2023-01-04T08:07:30.200Z,98927.00
2023-01-04T08:09:59.926Z,98916.22
2023-01-04T08:12:31.814Z,98912.97
2023-01-04T08:15:02.029Z,98914.31
2023-01-04T08:17:32.651Z,98916.69
2023-01-04T08:20:03.762Z,98917.19
2023-01-04T08:22:37.895Z,98919.81
2023-01-04T08:25:09.763Z,98917.03
2023-01-04T08:27:42.165Z,98916.34
2023-01-04T08:30:12.820Z,98917.72
2023-01-04T08:32:43.216Z,98913.13
2023-01-04T08:35:13.853Z,98917.03
2023-01-04T08:37:44.054Z,98909.13
2023-01-04T08:40:14.548Z,98902.25
2023-01-04T08:42:47.029Z,98907.22
2023-01-04T08:45:17.067Z,98902.00
2023-01-04T08:47:48.304Z,98893.06
2023-01-04T08:50:20.598Z,98895.50
2023-01-04T08:52:51.098Z,98881.91
2023-01-04T08:55:23.545Z,98881.66
2023-01-04T08:57:55.672Z,98884.41
2023-01-04T09:00:26.164Z,98879.22
2023-01-04T09:02:56.285Z,98881.31
2023-01-04T09:05:26.780Z,98885.59
2023-01-04T09:07:56.860Z,98880.19
2023-01-04T09:10:27.208Z,98877.69
2023-01-04T09:12:59.012Z,98880.84
2023-01-04T09:15:29.134Z,98883.47
2023-01-04T09:18:31.132Z,98882.88
2023-01-04T09:20:49.338Z,98880.75
2023-01-04T09:23:19.483Z,98875.72
2023-01-04T09:25:50.200Z,98867.31
2023-01-04T09:28:22.501Z,98871.63
2023-01-04T09:30:52.861Z,98863.72
2023-01-04T09:33:41.400Z,98866.66
2023-01-04T09:36:16.101Z,98868.97
2023-01-04T09:38:46.875Z,98848.88
2023-01-04T09:41:23.416Z,98854.06
2023-01-04T09:43:56.491Z,98844.81
2023-01-04T09:46:34.834Z,98844.19
2023-01-04T09:49:18.748Z,98837.16
2023-01-04T09:51:55.555Z,98825.53
2023-01-04T09:57:04.316Z,98821.59
2023-01-04T09:59:36.951Z,98811.53
2023-01-04T10:02:13.140Z,98815.69
2023-01-04T10:04:45.229Z,98810.66
2023-01-04T10:07:25.249Z,98803.16
2023-01-04T10:10:04.776Z,98797.31
2023-01-04T10:12:43.200Z,98802.91
2023-01-04T10:15:35.162Z,98792.56
2023-01-04T10:19:52.272Z,98787.00
2023-01-04T10:21:33.975Z,98789.69
2023-01-04T10:24:24.636Z,98779.06
2023-01-04T10:27:00.881Z,98778.88
2023-01-04T10:29:42.060Z,98770.06
2023-01-04T10:32:21.175Z,98776.78
2023-01-04T10:34:51.518Z,98773.19
2023-01-04T10:37:23.680Z,98765.59
2023-01-04T10:39:56.106Z,98749.19
2023-01-04T10:42:34.318Z,98745.69
2023-01-04T10:45:13.966Z,98732.09
2023-01-04T10:47:54.007Z,98735.13
2023-01-04T10:50:30.095Z,98726.69
2023-01-04T10:53:03.534Z,98716.28
2023-01-04T10:55:38.668Z,98713.50
2023-01-04T10:58:12.672Z,98713.94
2023-01-04T11:00:46.921Z,98708.34
2023-01-04T11:03:23.049Z,98701.09
2023-01-04T11:05:55.824Z,98699.53
2023-01-04T11:08:30.302Z,98688.47
2023-01-04T11:11:05.437Z,98687.63
2023-01-04T11:13:35.933Z,98686.72
2023-01-04T11:16:07.952Z,98696.56
2023-01-04T11:18:40.473Z,98700.06
2023-01-04T11:21:12.792Z,98701.97
2023-01-04T11:23:43.030Z,98697.66
2023-01-04T11:26:16.273Z,98691.75
2023-01-04T11:28:49.521Z,98685.81
2023-01-04T11:31:24.100Z,98674.00
2023-01-04T11:33:59.490Z,98678.19
2023-01-04T11:36:38.503Z,98672.44
2023-01-04T11:39:12.560Z,98659.97
2023-01-04T11:41:42.500Z,98652.91
2023-01-04T11:44:21.757Z,98652.84
2023-01-04T11:47:08.541Z,98649.09
2023-01-04T11:49:40.727Z,98648.09
2023-01-04T11:52:31.260Z,98643.56
2023-01-04T11:55:18.520Z,98643.66
2023-01-04T11:57:48.443Z,98640.69
2023-01-04T12:00:19.077Z,98639.81
2023-01-04T12:03:01.318Z,98632.22
2023-01-04T12:05:35.162Z,98630.16
2023-01-04T12:08:05.175Z,98617.50
2023-01-04T12:10:36.668Z,98609.16
2023-01-04T12:13:07.964Z,98608.16
2023-01-04T12:15:45.292Z,98588.88
2023-01-04T12:18:20.581Z,98601.09
2023-01-04T12:20:52.521Z,98595.19
2023-01-04T12:23:22.721Z,98592.28
2023-01-04T12:25:54.121Z,98593.44
2023-01-04T12:28:32.537Z,98581.69
2023-01-04T12:31:28.340Z,98569.13
2023-01-04T12:33:59.874Z,98565.44
2023-01-04T12:37:04.524Z,98564.84
2023-01-04T12:39:45.190Z,98566.34
2023-01-04T12:42:27.127Z,98563.31
2023-01-04T12:45:23.789Z,98564.47
2023-01-04T12:48:12.780Z,98552.09
2023-01-04T12:51:31.230Z,98555.22
2023-01-04T12:54:05.664Z,98556.38
2023-01-04T12:57:13.482Z,98545.44
2023-01-04T12:59:56.134Z,98545.84
2023-01-04T13:02:28.523Z,98543.19
2023-01-04T13:05:43.522Z,98539.91
2023-01-04T13:07:50.959Z,98536.88
2023-01-04T13:10:35.825Z,98526.06
2023-01-04T13:13:24.881Z,98531.41
2023-01-04T13:16:03.731Z,98517.53
2023-01-04T13:18:38.227Z,98525.69
2023-01-04T13:21:13.782Z,98528.41
2023-01-04T13:23:51.433Z,98519.72
2023-01-04T13:26:48.702Z,98514.81
2023-01-04T13:29:21.823Z,98522.19
2023-01-04T13:31:57.782Z,98529.13
2023-01-04T13:34:31.397Z,98521.41
2023-01-04T13:37:08.328Z,98517.56
2023-01-04T13:39:40.320Z,98511.69
2023-01-04T13:42:18.328Z,98507.03
2023-01-04T13:45:22.274Z,98505.91
2023-01-04T13:47:55.071Z,98498.13
2023-01-04T13:50:35.915Z,98494.25
2023-01-04T13:53:08.716Z,98495.84
2023-01-04T13:55:40.291Z,98487.25
2023-01-04T13:58:19.766Z,98493.03
2023-01-04T14:00:53.103Z,98502.00
2023-01-04T14:03:39.127Z,98497.31
2023-01-04T14:06:22.189Z,98492.59
2023-01-04T14:08:56.405Z,98488.81
2023-01-04T14:11:46.211Z,98484.97
2023-01-04T14:14:29.858Z,98477.13
2023-01-04T14:17:20.492Z,98481.78
2023-01-04T14:19:53.125Z,98475.59
2023-01-04T14:22:44.424Z,98477.06
2023-01-04T14:25:49.345Z,98470.97
2023-01-04T14:28:46.881Z,98478.69
2023-01-04T14:31:30.178Z,98480.97
2023-01-04T14:34:00.465Z,98470.84
2023-01-04T14:36:34.479Z,98467.31
2023-01-04T14:39:33.095Z,98475.72
2023-01-04T14:42:05.287Z,98467.91
2023-01-04T14:44:36.820Z,98459.00
2023-01-04T14:47:13.265Z,98453.06
2023-01-04T14:49:43.921Z,98448.00
2023-01-04T14:52:20.085Z,98437.41
2023-01-04T14:54:50.822Z,98445.72
2023-01-04T14:57:22.173Z,98446.13
2023-01-04T14:59:52.559Z,98448.38
2023-01-04T15:02:27.170Z,98437.09
2023-01-04T15:04:57.498Z,98440.06
2023-01-04T15:07:35.976Z,98446.19
2023-01-04T15:10:08.892Z,98446.97
2023-01-04T15:12:39.059Z,98439.50
2023-01-04T15:15:09.943Z,98450.25
2023-01-04T15:17:41.801Z,98440.09
2023-01-04T15:20:12.197Z,98439.59
2023-01-04T15:22:42.970Z,98431.34
2023-01-04T15:25:13.663Z,98433.63
2023-01-04T15:27:43.911Z,98432.69
2023-01-04T15:30:14.406Z,98424.53
2023-01-04T15:32:48.020Z,98422.38
2023-01-04T15:35:18.316Z,98431.03
2023-01-04T15:37:48.557Z,98423.16
2023-01-04T15:40:19.797Z,98418.88
2023-01-04T15:43:02.176Z,98426.44
2023-01-04T15:45:34.058Z,98419.44
2023-01-04T15:48:08.363Z,98413.50
2023-01-04T15:50:40.208Z,98415.31
2023-01-04T15:53:10.605Z,98422.81
2023-01-04T15:55:41.186Z,98422.19
2023-01-04T15:58:11.504Z,98422.84
2023-01-04T16:00:41.789Z,98428.88
2023-01-04T16:03:13.226Z,98428.78
2023-01-04T16:05:43.654Z,98427.22
2023-01-04T16:08:13.831Z,98431.03
2023-01-04T16:10:43.694Z,98438.50
2023-01-04T16:13:13.668Z,98439.13
2023-01-04T16:15:44.385Z,98430.72
2023-01-04T16:18:15.975Z,98434.31
2023-01-04T16:20:45.649Z,98435.00
2023-01-04T16:23:15.748Z,98425.84
2023-01-04T16:25:47.278Z,98426.38
2023-01-04T16:28:17.595Z,98424.81
2023-01-04T16:30:50.426Z,98418.75
2023-01-04T16:33:22.335Z,98408.53
2023-01-04T16:35:57.368Z,98412.44
2023-01-04T16:38:28.027Z,98418.31
2023-01-04T16:41:03.241Z,98405.13
2023-01-04T16:43:33.783Z,98402.00
2023-01-04T16:46:20.483Z,98398.88
2023-01-04T16:48:53.644Z,98400.03
2023-01-04T16:51:24.447Z,98402.78
2023-01-04T16:53:55.040Z,98401.78
2023-01-04T16:56:26.411Z,98406.84
2023-01-04T16:58:56.391Z,98408.28
2023-01-04T17:01:28.325Z,98419.31
2023-01-04T17:04:01.544Z,98419.91
2023-01-04T17:06:32.422Z,98395.50
2023-01-04T17:09:03.524Z,98407.59
2023-01-04T17:12:36.403Z,98399.00
2023-01-04T17:14:27.429Z,98395.00
2023-01-04T17:16:58.072Z,98391.34
2023-01-04T17:19:29.198Z,98379.63
2023-01-04T17:21:59.430Z,98383.34
2023-01-04T17:24:29.334Z,98368.88
2023-01-04T17:26:59.151Z,98367.06
2023-01-04T17:29:29.159Z,98372.00
2023-01-04T17:32:00.316Z,98369.41
2023-01-04T17:34:31.819Z,98360.88
2023-01-04T17:37:01.633Z,98360.19
2023-01-04T17:39:33.020Z,98359.88
2023-01-04T17:42:02.896Z,98349.78
2023-01-04T17:44:33.041Z,98344.56
2023-01-04T17:47:02.934Z,98345.81
2023-01-04T17:49:34.588Z,98344.91
2023-01-04T17:52:05.486Z,98340.50
2023-01-04T17:54:37.908Z,98349.97
2023-01-04T17:57:07.791Z,98344.34
2023-01-04T17:59:38.034Z,98337.91
2023-01-04T18:02:08.421Z,98338.25
2023-01-04T18:04:40.354Z,98340.41
2023-01-04T18:09:42.739Z,98342.38
2023-01-04T18:12:13.136Z,98345.16
2023-01-04T18:14:43.288Z,98338.44
2023-01-04T18:17:14.138Z,98332.69
2023-01-04T18:19:46.671Z,98335.59
2023-01-04T18:22:16.961Z,98336.53
2023-01-04T18:24:49.396Z,98329.09
2023-01-04T18:27:24.894Z,98323.72
2023-01-04T18:29:57.083Z,98309.97
2023-01-04T18:32:29.856Z,98311.13
2023-01-04T18:35:05.649Z,98313.59
2023-01-04T18:37:36.426Z,98318.00
2023-01-04T18:40:07.695Z,98314.44
2023-01-04T18:42:39.973Z,98315.59
2023-01-04T18:45:10.527Z,98309.19
2023-01-04T18:47:40.551Z,98306.03
2023-01-04T18:50:13.323Z,98292.31
2023-01-04T18:52:43.283Z,98292.28
2023-01-04T18:55:13.386Z,98299.91
2023-01-04T18:57:43.473Z,98297.63
2023-01-04T19:00:14.936Z,98295.97
2023-01-04T19:02:45.194Z,98286.50
2023-01-04T19:05:19.117Z,98275.88
2023-01-04T19:07:50.643Z,98275.56
2023-01-04T19:10:20.785Z,98265.66
2023-01-04T19:12:51.093Z,98253.44
2023-01-04T19:15:21.182Z,98262.00
2023-01-04T19:17:51.357Z,98265.56
2023-01-04T19:20:23.614Z,98256.09
2023-01-04T19:22:53.758Z,98248.38
2023-01-04T19:25:28.227Z,98249.25
2023-01-04T19:27:58.152Z,98249.41
2023-01-04T19:30:29.481Z,98250.13
2023-01-04T19:32:59.102Z,98264.28
2023-01-04T19:35:31.669Z,98267.09
2023-01-04T19:38:02.798Z,98265.16
2023-01-04T19:40:33.532Z,98259.47
2023-01-04T19:43:04.082Z,98265.50
2023-01-04T19:45:37.756Z,98254.97
2023-01-04T19:48:07.768Z,98250.72
2023-01-04T19:50:39.392Z,98263.22
2023-01-04T19:53:09.325Z,98262.88
2023-01-04T19:55:42.902Z,98257.97
2023-01-04T19:58:12.957Z,98252.34
2023-01-04T20:00:43.116Z,98248.78
2023-01-04T20:03:13.416Z,98246.44
2023-01-04T20:05:45.685Z,98239.19
2023-01-04T20:08:15.251Z,98221.03
2023-01-04T20:10:45.244Z,98215.97
2023-01-04T20:13:15.216Z,98226.88
2023-01-04T20:15:45.685Z,98216.31
2023-01-04T20:18:15.085Z,98222.75
2023-01-04T20:20:46.839Z,98209.66
2023-01-04T20:23:17.518Z,98212.91
2023-01-04T20:25:49.286Z,98215.38
2023-01-04T20:28:20.138Z,98201.69
2023-01-04T20:30:50.607Z,98213.44
2023-01-04T20:33:21.184Z,98207.63
2023-01-04T20:35:52.657Z,98201.53
2023-01-04T20:38:22.648Z,98204.69
2023-01-04T20:40:52.426Z,98202.00
2023-01-04T20:43:37.749Z,98197.06
2023-01-04T20:46:12.900Z,98201.78
2023-01-04T20:48:43.475Z,98192.88
2023-01-04T20:51:18.097Z,98184.72
2023-01-04T20:53:48.112Z,98185.34
2023-01-04T20:56:19.534Z,98181.47
2023-01-04T20:58:50.496Z,98179.16
2023-01-04T21:01:22.490Z,98170.63
2023-01-04T21:03:53.161Z,98166.09
2023-01-04T21:06:25.544Z,98176.88
2023-01-04T21:08:56.087Z,98157.88
2023-01-04T21:11:26.579Z,98169.00
2023-01-04T21:13:56.480Z,98153.97
2023-01-04T21:16:27.220Z,98163.75
2023-01-04T21:18:57.314Z,98155.78
2023-01-04T21:21:28.991Z,98152.22
2023-01-04T21:23:59.049Z,98151.78
2023-01-04T21:26:29.272Z,98143.38
2023-01-04T21:28:59.246Z,98156.13
2023-01-04T21:31:29.778Z,98142.09
2023-01-04T21:33:59.697Z,98158.13
2023-01-04T21:36:31.584Z,98154.19
2023-01-04T21:39:01.472Z,98134.31
2023-01-04T21:41:31.385Z,98137.13
2023-01-04T21:44:01.254Z,98133.59
2023-01-04T21:46:32.105Z,98128.84
2023-01-04T21:49:04.746Z,98117.91
2023-01-04T21:51:37.141Z,98110.88
2023-01-04T21:54:07.611Z,98116.81
2023-01-04T21:56:37.983Z,98112.06
2023-01-04T21:59:08.738Z,98107.00
2023-01-04T22:01:39.532Z,98115.63
2023-01-04T22:04:10.049Z,98116.69
2023-01-04T22:06:42.361Z,98118.94
2023-01-04T22:09:12.680Z,98111.34
2023-01-04T22:11:43.845Z,98102.72
2023-01-04T22:14:14.290Z,98098.31
2023-01-04T22:16:44.399Z,98096.53
2023-01-04T22:19:15.356Z,98101.78
2023-01-04T22:21:47.054Z,98094.41
2023-01-04T22:24:17.861Z,98088.28
2023-01-04T22:26:49.641Z,98092.03
2023-01-04T22:29:21.144Z,98085.47
2023-01-04T22:31:52.327Z,98088.53
2023-01-04T22:34:22.326Z,98086.50
2023-01-04T22:36:53.876Z,98082.47
2023-01-04T22:39:24.316Z,98080.03
2023-01-04T22:41:54.397Z,98072.31
2023-01-04T22:44:24.180Z,98076.13
2023-01-04T22:46:55.891Z,98082.94
2023-01-04T22:49:26.189Z,98078.97
2023-01-04T22:51:57.654Z,98070.91
2023-01-04T22:54:27.575Z,98063.06
2023-01-04T22:56:58.152Z,98056.31
2023-01-04T22:59:28.103Z,98052.03
2023-01-04T23:01:58.427Z,98045.94
2023-01-04T23:04:28.548Z,98034.63
2023-01-04T23:07:01.554Z,98045.59
2023-01-04T23:09:31.611Z,98045.94
2023-01-04T23:12:02.080Z,98042.81
2023-01-04T23:14:31.847Z,98035.00
2023-01-04T23:17:02.883Z,98030.75
2023-01-04T23:19:33.184Z,98020.63
2023-01-04T23:22:05.337Z,98020.63
2023-01-04T23:24:36.074Z,98010.78
2023-01-04T23:27:06.643Z,98003.50
2023-01-04T23:29:36.714Z,98009.03
2023-01-04T23:32:07.332Z,97996.69
2023-01-04T23:34:37.647Z,97988.63
2023-01-04T23:37:09.316Z,97982.66
2023-01-04T23:39:39.283Z,97971.38
2023-01-04T23:42:10.465Z,97972.50
2023-01-04T23:44:40.778Z,97963.09
2023-01-04T23:47:11.697Z,97961.31
2023-01-04T23:49:41.980Z,97961.19
2023-01-04T23:52:13.994Z,97963.16
2023-01-04T23:54:43.728Z,97958.19
2023-01-04T23:57:14.493Z,97946.09
2023-01-04T23:59:44.692Z,97948.13
